Time;durP1;ratioP1;P1;durP2;ratioP2;P2;SDS_P1;SDS_P2;PMS_P1;PMS_P2;Temp;Humidity;BMP_temperature;BMP_pressure;BME280_temperature;BME280_humidity;BME280_pressure;Samples;Min_cycle;Max_cycle;Signal;HPM_P1;HPM_P2
2021/12/11 00:01:18;;;;;;;1.58;1.45;;;;;;;;;;5041160;28;20470;-75
2021/12/11 00:04:06;;;;;;;1.80;1.40;;;;;;;;;;5043115;28;20028;-73
2021/12/11 00:06:37;;;;;;;1.13;0.88;;;;;;;;;;5042891;28;20475;-73
2021/12/11 00:09:38;;;;;;;1.73;1.42;;;;;;;;;;5041576;28;20113;-72
2021/12/11 00:12:18;;;;;;;3.42;1.33;;;;;;;;;;5029777;28;20091;-74
2021/12/11 00:15:00;;;;;;;1.38;1.27;;;;;;;;;;5042393;28;20025;-73
2021/12/11 00:17:31;;;;;;;6.90;1.38;;;;;;;;;;5042194;28;20494;-74
2021/12/11 00:19:56;;;;;;;1.98;1.45;;;;;;;;;;5042824;28;21031;-73
2021/12/11 00:22:25;;;;;;;11.73;1.40;;;;;;;;;;5040400;28;20060;-72
2021/12/11 00:24:52;;;;;;;0.65;0.65;;;;;;;;;;5042719;28;20037;-73
2021/12/11 00:27:25;;;;;;;1.30;1.20;;;;;;;;;;5042759;28;20037;-72
2021/12/11 00:29:51;;;;;;;1.10;1.00;;;;;;;;;;5042610;28;20032;-74
2021/12/11 00:32:24;;;;;;;1.00;1.00;;;;;;;;;;5041681;28;20029;-72
2021/12/11 00:34:52;;;;;;;1.15;1.05;;;;;;;;;;5042345;28;20516;-73
2021/12/11 00:37:21;;;;;;;2.78;1.08;;;;;;;;;;5041140;28;20037;-74
2021/12/11 00:40:10;;;;;;;1.35;1.08;;;;;;;;;;5042433;28;20472;-73
2021/12/11 00:42:36;;;;;;;5.03;1.13;;;;;;;;;;5040819;28;20120;-72
2021/12/11 00:45:13;;;;;;;2.10;1.20;;;;;;;;;;5040975;28;20170;-75
2021/12/11 00:47:51;;;;;;;1.42;1.00;;;;;;;;;;5024350;28;20075;-74
2021/12/11 00:50:20;;;;;;;0.90;0.90;;;;;;;;;;5043490;28;20053;-73
2021/12/11 00:52:54;;;;;;;4.57;0.80;;;;;;;;;;5041128;28;20045;-73
2021/12/11 00:55:30;;;;;;;1.38;1.27;;;;;;;;;;5040578;28;20059;-73
2021/12/11 00:58:09;;;;;;;1.52;1.42;;;;;;;;;;5042171;28;20779;-73
2021/12/11 01:00:41;;;;;;;1.17;1.08;;;;;;;;;;5040520;28;20191;-73
2021/12/11 01:03:08;;;;;;;1.63;0.88;;;;;;;;;;5039116;28;20594;-75
2021/12/11 01:05:42;;;;;;;0.68;0.65;;;;;;;;;;5040534;28;20126;-73
2021/12/11 01:08:27;;;;;;;0.85;0.68;;;;;;;;;;5041544;28;20041;-76
2021/12/11 01:10:59;;;;;;;1.30;0.98;;;;;;;;;;5039946;28;20582;-73
2021/12/11 01:13:29;;;;;;;2.25;0.95;;;;;;;;;;5041616;28;20033;-75
2021/12/11 01:16:00;;;;;;;1.45;1.35;;;;;;;;;;5041578;28;20040;-74
2021/12/11 01:18:39;;;;;;;1.10;1.10;;;;;;;;;;5039720;28;20102;-74
2021/12/11 01:21:25;;;;;;;2.80;0.82;;;;;;;;;;5041660;28;20302;-74
2021/12/11 01:26:34;;;;;;;0.73;0.73;;;;;;;;;;5041429;28;20735;-73
2021/12/11 01:29:00;;;;;;;0.40;0.40;;;;;;;;;;5039116;28;20028;-75
2021/12/11 01:31:27;;;;;;;0.80;0.80;;;;;;;;;;5041387;28;20039;-76
2021/12/11 01:33:54;;;;;;;0.60;0.60;;;;;;;;;;5041590;28;20041;-72
2021/12/11 01:36:20;;;;;;;2.85;0.95;;;;;;;;;;5040888;28;20021;-73
2021/12/11 01:38:46;;;;;;;1.73;1.15;;;;;;;;;;5040727;28;20110;-72
2021/12/11 01:41:17;;;;;;;1.08;0.98;;;;;;;;;;5041298;28;20131;-72
2021/12/11 01:43:44;;;;;;;0.80;0.80;;;;;;;;;;5041541;28;20040;-72
2021/12/11 01:46:10;;;;;;;0.70;0.70;;;;;;;;;;5040642;28;20036;-72
2021/12/11 01:48:41;;;;;;;2.08;0.88;;;;;;;;;;5041354;28;20043;-75
2021/12/11 01:51:12;;;;;;;2.25;0.82;;;;;;;;;;5040349;28;20447;-75
2021/12/11 01:53:42;;;;;;;1.17;1.08;;;;;;;;;;5041193;28;20033;-73
2021/12/11 01:56:12;;;;;;;0.80;0.80;;;;;;;;;;5041072;28;20051;-75
2021/12/11 01:58:45;;;;;;;1.17;0.85;;;;;;;;;;5040940;28;20965;-72
2021/12/11 02:01:22;;;;;;;0.85;0.85;;;;;;;;;;5040493;28;20150;-73
2021/12/11 02:03:50;;;;;;;2.15;1.08;;;;;;;;;;5041130;28;20067;-73
2021/12/11 02:06:16;;;;;;;1.73;0.90;;;;;;;;;;5041204;28;20071;-76
2021/12/11 02:08:43;;;;;;;0.70;0.70;;;;;;;;;;5041769;28;20039;-72
2021/12/11 02:11:15;;;;;;;1.10;1.00;;;;;;;;;;5041318;28;20029;-72
2021/12/11 02:13:48;;;;;;;0.85;0.85;;;;;;;;;;5040339;28;20049;-74
2021/12/11 02:16:31;;;;;;;0.90;0.90;;;;;;;;;;5041139;28;20376;-75
2021/12/11 02:19:05;;;;;;;2.22;0.90;;;;;;;;;;5041526;28;20087;-75
2021/12/11 02:21:35;;;;;;;2.70;0.90;;;;;;;;;;5041852;28;20068;-72
2021/12/11 02:24:09;;;;;;;1.80;1.02;;;;;;;;;;5041304;28;20029;-72
2021/12/11 02:26:38;;;;;;;0.90;0.80;;;;;;;;;;5041500;28;20063;-72
2021/12/11 02:29:22;;;;;;;1.77;1.30;;;;;;;;;;5041322;28;20128;-74
2021/12/11 02:31:56;;;;;;;0.90;0.90;;;;;;;;;;5042363;28;20043;-73
2021/12/11 02:34:27;;;;;;;0.73;0.73;;;;;;;;;;5042844;28;20052;-72
2021/12/11 02:37:06;;;;;;;1.20;1.10;;;;;;;;;;5042878;28;20464;-73
2021/12/11 02:39:35;;;;;;;0.80;0.80;;;;;;;;;;5042806;28;20033;-72
2021/12/11 02:42:21;;;;;;;0.95;0.85;;;;;;;;;;5041281;28;20047;-73
2021/12/11 02:44:56;;;;;;;2.58;1.00;;;;;;;;;;5049141;28;20029;-73
2021/12/11 02:47:24;;;;;;;1.10;1.00;;;;;;;;;;5042784;28;20033;-75
2021/12/11 02:50:10;;;;;;;1.08;1.08;;;;;;;;;;5043466;28;20025;-73
2021/12/11 02:52:49;;;;;;;2.15;0.88;;;;;;;;;;5034875;28;20044;-73
2021/12/11 02:55:39;;;;;;;0.80;0.80;;;;;;;;;;5042494;28;20037;-73
2021/12/11 02:58:16;;;;;;;4.20;0.70;;;;;;;;;;5042726;28;20052;-73
2021/12/11 03:00:45;;;;;;;0.95;0.90;;;;;;;;;;5042600;28;20119;-74
2021/12/11 03:03:14;;;;;;;1.10;1.08;;;;;;;;;;5041593;28;20140;-74
2021/12/11 03:06:11;;;;;;;0.85;0.73;;;;;;;;;;5042225;28;20033;-73
2021/12/11 03:08:37;;;;;;;2.20;0.98;;;;;;;;;;5042869;28;20077;-73
2021/12/11 03:11:07;;;;;;;1.58;0.88;;;;;;;;;;5043266;28;20210;-73
2021/12/11 03:13:34;;;;;;;1.50;1.20;;;;;;;;;;5046547;28;20044;-73
2021/12/11 03:16:01;;;;;;;1.13;1.00;;;;;;;;;;5046366;28;20037;-72
2021/12/11 03:18:27;;;;;;;1.00;0.93;;;;;;;;;;5046741;28;20491;-73
2021/12/11 03:20:54;;;;;;;1.80;0.70;;;;;;;;;;5045934;28;20045;-75
2021/12/11 03:23:20;;;;;;;0.93;0.80;;;;;;;;;;5046411;28;20657;-75
2021/12/11 03:25:46;;;;;;;0.98;0.82;;;;;;;;;;5046173;28;20057;-75
2021/12/11 03:28:15;;;;;;;0.70;0.70;;;;;;;;;;5046526;28;20048;-72
2021/12/11 03:30:45;;;;;;;1.95;0.80;;;;;;;;;;5046858;28;20124;-71
2021/12/11 03:33:16;;;;;;;1.02;0.98;;;;;;;;;;5047041;28;20037;-72
2021/12/11 03:35:44;;;;;;;1.00;0.75;;;;;;;;;;5046314;28;20044;-73
2021/12/11 03:38:11;;;;;;;0.60;0.60;;;;;;;;;;5046493;28;20048;-72
2021/12/11 03:40:38;;;;;;;0.80;0.80;;;;;;;;;;5046960;28;20091;-72
2021/12/11 03:43:07;;;;;;;1.05;0.95;;;;;;;;;;5045970;28;20037;-73
2021/12/11 03:45:37;;;;;;;2.60;0.80;;;;;;;;;;5046209;28;20060;-74
2021/12/11 03:48:13;;;;;;;3.83;1.33;;;;;;;;;;5047122;28;20120;-73
2021/12/11 03:50:39;;;;;;;0.70;0.60;;;;;;;;;;5046748;28;20032;-72
2021/12/11 03:53:05;;;;;;;1.20;1.13;;;;;;;;;;5047242;28;20048;-72
2021/12/11 03:55:38;;;;;;;1.10;1.00;;;;;;;;;;5046659;28;20033;-73
2021/12/11 03:58:06;;;;;;;2.80;1.35;;;;;;;;;;5047257;28;20036;-72
2021/12/11 04:00:46;;;;;;;0.75;0.75;;;;;;;;;;5046510;28;20044;-71
2021/12/11 04:03:14;;;;;;;0.90;0.90;;;;;;;;;;5046892;28;20045;-73
2021/12/11 04:05:43;;;;;;;1.08;0.98;;;;;;;;;;5045676;28;20037;-72
2021/12/11 04:08:11;;;;;;;1.77;1.40;;;;;;;;;;5046332;28;20525;-74
2021/12/11 04:10:36;;;;;;;0.82;0.82;;;;;;;;;;5048325;28;20029;-72
2021/12/11 04:13:06;;;;;;;2.00;1.80;;;;;;;;;;5057515;28;20040;-72
2021/12/11 04:15:31;;;;;;;1.30;1.20;;;;;;;;;;5055178;28;20383;-75
2021/12/11 04:17:57;;;;;;;2.92;1.45;;;;;;;;;;5054642;28;20036;-74
2021/12/11 04:20:27;;;;;;;1.02;0.93;;;;;;;;;;5055611;28;20040;-71
2021/12/11 04:22:54;;;;;;;1.95;1.75;;;;;;;;;;5054522;28;20037;-72
2021/12/11 04:25:23;;;;;;;2.67;1.35;;;;;;;;;;5049354;28;20079;-71
2021/12/11 04:27:48;;;;;;;3.10;1.33;;;;;;;;;;5047333;28;20087;-72
2021/12/11 04:30:16;;;;;;;1.30;1.20;;;;;;;;;;5047757;28;20064;-73
2021/12/11 04:32:42;;;;;;;1.30;1.13;;;;;;;;;;5046825;28;20059;-71
2021/12/11 04:35:12;;;;;;;0.90;0.90;;;;;;;;;;5046517;28;20033;-71
2021/12/11 04:37:38;;;;;;;1.98;1.35;;;;;;;;;;5045438;28;20029;-71
2021/12/11 04:40:12;;;;;;;1.13;1.02;;;;;;;;;;5045496;28;20064;-73
2021/12/11 04:45:09;;;;;;;1.92;1.02;;;;;;;;;;5045462;28;20051;-72
2021/12/11 04:47:43;;;;;;;4.68;1.98;;;;;;;;;;5045395;28;20033;-72
2021/12/11 04:50:23;;;;;;;1.83;1.73;;;;;;;;;;5044335;28;20045;-75
2021/12/11 04:52:54;;;;;;;1.55;1.45;;;;;;;;;;5043657;28;20112;-71
2021/12/11 05:11:35;;;;;;;2.17;1.90;;;;;;;;;;5019518;28;20131;-73
2021/12/11 05:14:04;;;;;;;3.47;1.67;;;;;;;;;;5041726;28;20051;-72
2021/12/11 05:16:29;;;;;;;1.58;1.35;;;;;;;;;;5042187;28;20036;-71
2021/12/11 05:18:55;;;;;;;1.85;1.67;;;;;;;;;;5041987;28;20044;-71
2021/12/11 05:21:21;;;;;;;3.88;1.88;;;;;;;;;;5043503;28;20567;-72
2021/12/11 05:23:49;;;;;;;2.00;1.63;;;;;;;;;;5042392;28;20035;-77
2021/12/11 05:26:15;;;;;;;1.23;1.17;;;;;;;;;;5041980;28;20067;-74
2021/12/11 05:28:40;;;;;;;3.13;1.58;;;;;;;;;;5041426;28;20045;-75
2021/12/11 05:31:09;;;;;;;1.38;1.27;;;;;;;;;;5041648;28;20052;-71
2021/12/11 05:33:36;;;;;;;1.58;1.48;;;;;;;;;;5041189;28;20171;-71
2021/12/11 05:36:06;;;;;;;1.63;1.52;;;;;;;;;;5041184;28;20040;-72
2021/12/11 05:38:35;;;;;;;1.48;1.38;;;;;;;;;;5041225;28;20233;-72
2021/12/11 05:41:03;;;;;;;5.57;1.88;;;;;;;;;;5041032;28;20044;-73
2021/12/11 05:43:30;;;;;;;1.48;1.27;;;;;;;;;;5041181;28;20052;-76
2021/12/11 05:45:55;;;;;;;3.88;1.88;;;;;;;;;;5041861;28;20044;-72
2021/12/11 05:48:21;;;;;;;4.55;1.80;;;;;;;;;;5041476;28;20040;-71
2021/12/11 05:50:50;;;;;;;1.70;1.38;;;;;;;;;;5041115;28;20058;-71
2021/12/11 05:53:18;;;;;;;2.03;1.85;;;;;;;;;;5041313;28;20033;-75
2021/12/11 05:55:46;;;;;;;1.35;1.25;;;;;;;;;;5039707;28;20044;-73
2021/12/11 05:58:13;;;;;;;1.40;1.30;;;;;;;;;;5041080;28;20124;-72
2021/12/11 06:00:44;;;;;;;2.20;1.60;;;;;;;;;;5040433;28;20507;-74
2021/12/11 06:03:09;;;;;;;2.70;1.42;;;;;;;;;;5027545;28;20037;-72
2021/12/11 06:05:36;;;;;;;3.00;1.40;;;;;;;;;;5040294;28;20041;-72
2021/12/11 06:08:03;;;;;;;5.63;1.45;;;;;;;;;;5040615;28;20063;-72
2021/12/11 06:10:29;;;;;;;1.10;1.10;;;;;;;;;;5040482;28;20028;-72
2021/12/11 06:12:59;;;;;;;1.55;1.45;;;;;;;;;;5039652;28;20048;-73
2021/12/11 06:15:25;;;;;;;1.85;1.75;;;;;;;;;;5039259;28;20136;-72
2021/12/11 06:17:51;;;;;;;5.93;1.70;;;;;;;;;;5040605;28;20115;-73
2021/12/11 06:20:21;;;;;;;1.25;1.08;;;;;;;;;;5040238;28;20384;-72
2021/12/11 06:22:47;;;;;;;2.35;1.73;;;;;;;;;;5040423;28;20041;-71
2021/12/11 06:25:16;;;;;;;2.08;1.50;;;;;;;;;;5039667;28;20055;-72
2021/12/11 06:27:43;;;;;;;2.13;1.40;;;;;;;;;;5040122;28;20041;-76
2021/12/11 06:30:10;;;;;;;1.70;1.60;;;;;;;;;;5040209;28;20041;-71
2021/12/11 06:32:36;;;;;;;5.55;1.33;;;;;;;;;;5040108;28;20503;-76
2021/12/11 06:35:24;;;;;;;2.30;2.10;;;;;;;;;;5040051;28;20056;-72
2021/12/11 06:37:50;;;;;;;2.08;1.02;;;;;;;;;;5040836;28;20395;-71
2021/12/11 06:40:16;;;;;;;1.27;1.25;;;;;;;;;;5040794;28;20029;-71
2021/12/11 06:42:42;;;;;;;1.48;1.38;;;;;;;;;;5040834;28;20043;-75
2021/12/11 06:45:08;;;;;;;2.25;1.45;;;;;;;;;;5041103;28;20025;-71
2021/12/11 06:47:33;;;;;;;1.60;1.50;;;;;;;;;;5043708;28;20083;-71
2021/12/11 06:49:59;;;;;;;1.70;1.60;;;;;;;;;;5044371;28;20052;-71
2021/12/11 06:52:26;;;;;;;1.38;1.00;;;;;;;;;;5043963;28;20037;-71
2021/12/11 06:54:52;;;;;;;1.55;1.45;;;;;;;;;;5044139;28;20073;-74
2021/12/11 06:57:18;;;;;;;2.40;1.67;;;;;;;;;;5043651;28;20041;-72
2021/12/11 06:59:44;;;;;;;1.30;1.20;;;;;;;;;;5043955;28;20045;-75
2021/12/11 07:02:10;;;;;;;1.20;1.10;;;;;;;;;;5043276;28;20048;-72
2021/12/11 07:04:37;;;;;;;2.50;1.58;;;;;;;;;;5042317;28;20087;-72
2021/12/11 07:07:03;;;;;;;7.22;1.52;;;;;;;;;;5042420;28;20037;-72
2021/12/11 07:09:29;;;;;;;3.78;1.83;;;;;;;;;;5041771;28;20059;-71
2021/12/11 07:11:57;;;;;;;2.35;1.55;;;;;;;;;;5042411;28;20067;-71
2021/12/11 07:14:27;;;;;;;3.67;1.55;;;;;;;;;;5042473;28;20827;-73
2021/12/11 07:16:53;;;;;;;2.92;1.45;;;;;;;;;;5041987;28;20123;-74
2021/12/11 07:19:19;;;;;;;4.53;1.92;;;;;;;;;;5043036;28;20117;-71
2021/12/11 07:21:49;;;;;;;1.08;1.02;;;;;;;;;;5043980;28;20036;-71
2021/12/11 07:24:15;;;;;;;3.05;1.52;;;;;;;;;;5039170;28;20094;-67
2021/12/11 07:26:40;;;;;;;2.28;0.98;;;;;;;;;;5041704;28;20041;-71
2021/12/11 07:29:10;;;;;;;1.38;1.27;;;;;;;;;;5040723;28;20452;-72
2021/12/11 07:31:36;;;;;;;2.40;1.67;;;;;;;;;;5042064;28;20106;-73
2021/12/11 07:34:03;;;;;;;3.28;1.58;;;;;;;;;;5040042;28;20048;-70
2021/12/11 07:36:29;;;;;;;1.40;1.30;;;;;;;;;;5041278;28;20065;-70
2021/12/11 07:38:56;;;;;;;1.17;1.10;;;;;;;;;;5041779;28;20043;-72
2021/12/11 07:41:22;;;;;;;2.15;1.15;;;;;;;;;;5042132;28;20041;-70
2021/12/11 07:43:48;;;;;;;1.63;1.50;;;;;;;;;;5041883;28;20612;-74
2021/12/11 07:46:21;;;;;;;2.33;0.80;;;;;;;;;;5042431;28;20082;-71
2021/12/11 07:48:47;;;;;;;3.13;1.08;;;;;;;;;;5042308;28;20051;-74
2021/12/11 07:51:13;;;;;;;8.48;1.55;;;;;;;;;;5041922;28;20033;-71
2021/12/11 07:53:39;;;;;;;1.88;1.05;;;;;;;;;;5041746;28;20025;-71
2021/12/11 07:56:05;;;;;;;1.27;1.10;;;;;;;;;;5040405;28;20041;-73
2021/12/11 07:58:33;;;;;;;2.28;0.85;;;;;;;;;;5041302;28;20036;-71
2021/12/11 08:01:00;;;;;;;3.38;1.50;;;;;;;;;;5041164;28;20033;-71
2021/12/11 08:03:26;;;;;;;3.05;1.20;;;;;;;;;;5042550;28;20037;-70
2021/12/11 08:05:53;;;;;;;1.85;1.25;;;;;;;;;;5042051;28;20065;-71
2021/12/11 08:08:21;;;;;;;1.23;1.15;;;;;;;;;;5042318;28;20037;-72
2021/12/11 08:10:51;;;;;;;1.13;1.02;;;;;;;;;;5042530;28;20029;-72
2021/12/11 08:13:16;;;;;;;3.55;1.40;;;;;;;;;;5041854;28;20033;-73
2021/12/11 08:15:43;;;;;;;1.95;1.35;;;;;;;;;;5041599;28;20052;-74
2021/12/11 08:18:12;;;;;;;2.03;1.67;;;;;;;;;;5042046;28;20334;-73
2021/12/11 08:20:39;;;;;;;2.22;2.03;;;;;;;;;;5042285;28;20264;-74
2021/12/11 08:23:06;;;;;;;1.30;1.20;;;;;;;;;;5042549;28;20048;-71
2021/12/11 08:25:33;;;;;;;0.95;0.90;;;;;;;;;;5041645;28;20064;-72
2021/12/11 08:28:00;;;;;;;2.33;1.48;;;;;;;;;;5042671;28;20087;-74
2021/12/11 08:30:29;;;;;;;1.02;1.02;;;;;;;;;;5042527;28;20036;-75
2021/12/11 08:32:55;;;;;;;1.30;1.20;;;;;;;;;;5042495;28;20052;-73
2021/12/11 08:35:20;;;;;;;2.47;1.42;;;;;;;;;;5041162;28;20083;-72
2021/12/11 08:37:49;;;;;;;2.33;1.48;;;;;;;;;;5042593;28;20438;-73
2021/12/11 08:40:21;;;;;;;3.13;2.10;;;;;;;;;;5042069;28;20255;-73
2021/12/11 08:42:47;;;;;;;3.50;0.95;;;;;;;;;;5042493;28;20040;-74
2021/12/11 08:45:22;;;;;;;1.67;1.30;;;;;;;;;;5041997;28;20147;-73
2021/12/11 08:47:52;;;;;;;0.80;0.80;;;;;;;;;;5041369;28;20126;-72
2021/12/11 08:50:21;;;;;;;1.02;0.93;;;;;;;;;;5042683;28;20048;-72
2021/12/11 08:52:50;;;;;;;1.50;1.40;;;;;;;;;;5042669;28;20375;-72
2021/12/11 08:55:24;;;;;;;1.63;1.25;;;;;;;;;;5041835;28;20063;-72
2021/12/11 08:57:50;;;;;;;1.70;1.60;;;;;;;;;;5041833;28;20055;-73
2021/12/11 09:00:29;;;;;;;1.25;1.15;;;;;;;;;;5042002;28;20037;-71
2021/12/11 09:03:04;;;;;;;0.85;0.85;;;;;;;;;;5042194;28;20059;-75
2021/12/11 09:05:36;;;;;;;1.25;1.17;;;;;;;;;;5041731;28;20494;-72
2021/12/11 09:08:07;;;;;;;;;;;;;;;;;;5042550;28;20510;-74
2021/12/11 09:10:51;;;;;;;1.50;1.40;;;;;;;;;;5041488;28;20024;-74
2021/12/11 09:13:29;;;;;;;2.20;2.00;;;;;;;;;;5039674;28;20040;-71
2021/12/11 09:16:02;;;;;;;1.42;1.33;;;;;;;;;;5041159;28;20041;-75
2021/12/11 09:18:43;;;;;;;2.38;2.17;;;;;;;;;;5041831;28;20045;-74
2021/12/11 09:21:13;;;;;;;3.53;2.65;;;;;;;;;;5040880;28;20037;-74
2021/12/11 09:23:51;;;;;;;2.00;1.90;;;;;;;;;;5041642;28;20190;-74
2021/12/11 09:26:30;;;;;;;1.85;1.75;;;;;;;;;;5041301;28;20037;-72
2021/12/11 09:29:03;;;;;;;1.40;1.30;;;;;;;;;;5041739;28;20029;-74
2021/12/11 09:31:37;;;;;;;1.60;1.50;;;;;;;;;;5040566;28;20033;-74
2021/12/11 09:34:10;;;;;;;2.03;1.88;;;;;;;;;;5036372;28;20036;-74
2021/12/11 09:36:47;;;;;;;1.92;1.83;;;;;;;;;;5039257;28;20051;-73
2021/12/11 09:39:31;;;;;;;2.38;2.17;;;;;;;;;;5039252;28;20151;-76
2021/12/11 09:41:56;;;;;;;12.45;2.15;;;;;;;;;;5039803;28;20295;-74
2021/12/11 09:44:29;;;;;;;2.20;1.55;;;;;;;;;;5041670;28;20613;-73
2021/12/11 09:47:04;;;;;;;1.73;1.63;;;;;;;;;;5040627;28;20095;-73
2021/12/11 09:49:35;;;;;;;2.63;1.90;;;;;;;;;;5043232;28;20056;-74
2021/12/11 09:52:18;;;;;;;2.17;2.08;;;;;;;;;;5041886;28;21005;-74
2021/12/11 09:54:47;;;;;;;2.47;2.28;;;;;;;;;;5024862;28;20040;-75
2021/12/11 09:57:17;;;;;;;3.47;3.17;;;;;;;;;;5041648;28;20049;-73
2021/12/11 09:59:46;;;;;;;2.47;2.28;;;;;;;;;;5040940;28;20020;-75
2021/12/11 10:02:22;;;;;;;2.70;2.50;;;;;;;;;;5035744;28;20036;-71
2021/12/11 10:05:00;;;;;;;2.28;2.08;;;;;;;;;;5038036;28;20040;-74
2021/12/11 10:07:33;;;;;;;3.65;2.30;;;;;;;;;;5039103;28;20048;-75
2021/12/11 10:10:23;;;;;;;2.45;2.28;;;;;;;;;;5037877;28;20039;-72
2021/12/11 10:12:54;;;;;;;2.45;2.17;;;;;;;;;;5036207;28;20052;-75
2021/12/11 10:15:29;;;;;;;2.63;2.35;;;;;;;;;;5037389;28;20043;-72
2021/12/11 10:17:57;;;;;;;3.50;3.20;;;;;;;;;;5040012;28;20059;-73
2021/12/11 10:20:32;;;;;;;3.00;2.70;;;;;;;;;;5039248;28;20044;-76
2021/12/11 10:23:00;;;;;;;2.42;2.22;;;;;;;;;;5040138;28;20044;-74
2021/12/11 10:25:30;;;;;;;3.92;2.85;;;;;;;;;;5039132;28;20044;-73
2021/12/11 10:28:02;;;;;;;3.22;2.92;;;;;;;;;;5040399;28;20036;-74
2021/12/11 10:30:31;;;;;;;2.72;2.53;;;;;;;;;;5040254;28;20051;-73
2021/12/11 10:32:56;;;;;;;2.53;2.33;;;;;;;;;;5040201;28;20047;-75
2021/12/11 10:35:28;;;;;;;4.10;2.90;;;;;;;;;;5040065;28;20036;-76
2021/12/11 10:37:55;;;;;;;3.08;2.70;;;;;;;;;;5038296;28;20051;-73
2021/12/11 10:40:26;;;;;;;2.40;2.20;;;;;;;;;;5040190;28;21089;-73
2021/12/11 10:43:09;;;;;;;3.65;3.35;;;;;;;;;;5040149;28;20123;-74
2021/12/11 10:45:35;;;;;;;2.80;2.58;;;;;;;;;;5038909;28;20052;-74
2021/12/11 10:48:06;;;;;;;4.45;3.85;;;;;;;;;;5038213;28;20045;-74
2021/12/11 10:50:58;;;;;;;3.10;2.80;;;;;;;;;;5038330;28;20059;-74
2021/12/11 10:53:27;;;;;;;3.30;2.97;;;;;;;;;;5039625;28;20029;-74
2021/12/11 10:55:54;;;;;;;2.38;2.15;;;;;;;;;;5039752;28;20033;-75
2021/12/11 10:58:24;;;;;;;2.67;2.47;;;;;;;;;;5039108;28;20453;-72
2021/12/11 11:01:04;;;;;;;1.90;1.80;;;;;;;;;;5039719;28;20033;-75
2021/12/11 11:03:35;;;;;;;2.75;2.55;;;;;;;;;;5034885;28;20115;-74
2021/12/11 11:06:02;;;;;;;1.88;1.77;;;;;;;;;;5038099;28;20036;-75
2021/12/11 11:08:29;;;;;;;2.42;2.22;;;;;;;;;;5037312;28;20090;-74
2021/12/11 11:10:59;;;;;;;4.28;3.88;;;;;;;;;;5037198;28;20098;-74
2021/12/11 11:13:25;;;;;;;2.53;2.33;;;;;;;;;;5038285;28;20074;-74
2021/12/11 11:15:53;;;;;;;2.13;1.92;;;;;;;;;;5038176;28;20033;-73
2021/12/11 11:18:20;;;;;;;2.63;2.42;;;;;;;;;;5038044;28;20140;-74
2021/12/11 11:21:02;;;;;;;3.58;3.00;;;;;;;;;;5038312;28;20715;-73
2021/12/11 11:23:28;;;;;;;3.75;3.42;;;;;;;;;;5037981;28;20029;-74
2021/12/11 11:25:57;;;;;;;2.63;2.35;;;;;;;;;;5038495;28;20052;-74
2021/12/11 11:28:28;;;;;;;3.42;3.13;;;;;;;;;;5038635;28;20029;-73
2021/12/11 11:31:00;;;;;;;6.35;4.32;;;;;;;;;;5039412;28;20056;-73
2021/12/11 11:33:27;;;;;;;4.22;3.40;;;;;;;;;;5040718;28;20086;-73
2021/12/11 11:35:54;;;;;;;5.13;4.00;;;;;;;;;;5042226;28;20028;-73
2021/12/11 11:38:31;;;;;;;6.22;4.72;;;;;;;;;;5042493;28;20044;-73
2021/12/11 11:41:02;;;;;;;6.30;5.00;;;;;;;;;;5042833;28;20094;-72
2021/12/11 11:43:27;;;;;;;4.85;4.18;;;;;;;;;;5041555;28;20029;-73
2021/12/11 11:45:54;;;;;;;4.53;4.10;;;;;;;;;;5042456;28;20480;-74
2021/12/11 11:48:26;;;;;;;3.17;2.88;;;;;;;;;;5042513;28;20035;-73
2021/12/11 11:50:54;;;;;;;3.55;3.25;;;;;;;;;;5057658;28;20041;-74
2021/12/11 11:53:24;;;;;;;7.35;4.13;;;;;;;;;;5041877;28;20574;-73
2021/12/11 11:55:57;;;;;;;5.53;4.40;;;;;;;;;;5041083;28;20045;-74
2021/12/11 11:58:24;;;;;;;4.05;3.53;;;;;;;;;;5042620;28;20033;-73
2021/12/11 12:00:57;;;;;;;4.82;4.32;;;;;;;;;;5042684;28;21078;-73
2021/12/11 12:03:25;;;;;;;5.07;4.13;;;;;;;;;;5042602;28;20033;-72
2021/12/11 12:05:59;;;;;;;5.80;4.60;;;;;;;;;;5041080;28;20052;-73
2021/12/11 12:08:25;;;;;;;2.67;2.47;;;;;;;;;;5041900;28;20063;-72
2021/12/11 12:10:53;;;;;;;3.22;2.78;;;;;;;;;;5042365;28;20025;-73
2021/12/11 12:13:23;;;;;;;5.07;4.57;;;;;;;;;;5042538;28;20046;-74
2021/12/11 12:15:53;;;;;;;4.68;4.18;;;;;;;;;;5040961;28;20106;-72
2021/12/11 12:18:20;;;;;;;4.85;4.13;;;;;;;;;;5042291;28;20048;-74
2021/12/11 12:20:48;;;;;;;4.50;3.85;;;;;;;;;;5040912;28;20044;-74
2021/12/11 12:23:14;;;;;;;6.15;4.10;;;;;;;;;;5042323;28;20045;-73
2021/12/11 12:25:42;;;;;;;5.53;4.32;;;;;;;;;;5041525;28;20522;-75
2021/12/11 12:28:08;;;;;;;5.45;4.55;;;;;;;;;;5038399;28;20033;-73
2021/12/11 12:30:43;;;;;;;5.80;4.63;;;;;;;;;;5040800;28;20290;-73
2021/12/11 12:33:10;;;;;;;3.78;2.90;;;;;;;;;;5041170;28;20040;-75
2021/12/11 12:35:37;;;;;;;4.75;3.53;;;;;;;;;;5040912;28;20032;-75
2021/12/11 12:38:07;;;;;;;3.95;3.55;;;;;;;;;;5040937;28;20045;-73
2021/12/11 12:40:41;;;;;;;4.13;3.72;;;;;;;;;;5040541;28;20847;-72
2021/12/11 12:43:13;;;;;;;4.82;4.30;;;;;;;;;;5041537;28;20558;-72
2021/12/11 12:45:41;;;;;;;;;;;;;;;;;;5042175;28;20040;-70
2021/12/11 12:48:16;;;;;;;3.63;3.33;;;;;;;;;;5041970;28;20364;-71
2021/12/11 12:50:54;;;;;;;3.25;2.53;;;;;;;;;;5041088;28;20044;-72
2021/12/11 12:53:22;;;;;;;3.67;2.97;;;;;;;;;;5041997;28;20044;-72
2021/12/11 12:55:55;;;;;;;4.30;3.90;;;;;;;;;;5041913;28;20383;-72
2021/12/11 12:58:30;;;;;;;5.45;4.22;;;;;;;;;;5042295;28;20041;-71
2021/12/11 13:01:04;;;;;;;2.92;2.53;;;;;;;;;;5041039;28;20586;-71
2021/12/11 13:03:32;;;;;;;4.38;3.97;;;;;;;;;;5042198;28;20036;-70
2021/12/11 13:06:03;;;;;;;3.95;3.65;;;;;;;;;;5041659;28;20407;-71
2021/12/11 13:08:36;;;;;;;5.07;3.97;;;;;;;;;;5042328;28;20115;-72
2021/12/11 13:11:09;;;;;;;2.28;2.08;;;;;;;;;;5041099;28;20495;-72
2021/12/11 13:13:36;;;;;;;2.65;2.45;;;;;;;;;;5042057;28;20037;-70
2021/12/11 13:16:10;;;;;;;4.22;3.83;;;;;;;;;;5040556;28;20419;-70
2021/12/11 13:18:41;;;;;;;5.25;4.28;;;;;;;;;;5040601;28;20045;-69
2021/12/11 13:21:16;;;;;;;3.00;2.70;;;;;;;;;;5037334;28;20116;-69
2021/12/11 13:23:46;;;;;;;2.97;2.35;;;;;;;;;;5037947;28;20033;-70
2021/12/11 13:26:14;;;;;;;3.88;3.53;;;;;;;;;;5038209;28;20029;-69
2021/12/11 13:28:44;;;;;;;2.97;2.72;;;;;;;;;;5038701;28;20119;-70
2021/12/11 13:31:15;;;;;;;4.03;3.63;;;;;;;;;;5039696;28;20174;-69
2021/12/11 13:33:41;;;;;;;4.88;3.90;;;;;;;;;;5039602;28;20486;-69
2021/12/11 13:36:08;;;;;;;5.88;4.57;;;;;;;;;;5041049;28;20094;-70
2021/12/11 13:38:36;;;;;;;4.93;4.32;;;;;;;;;;5041395;28;20036;-70
2021/12/11 13:41:09;;;;;;;5.07;4.57;;;;;;;;;;5041231;28;20041;-70
2021/12/11 13:43:36;;;;;;;4.38;3.58;;;;;;;;;;5040923;28;20056;-70
2021/12/11 13:46:04;;;;;;;5.47;4.78;;;;;;;;;;5040703;28;20051;-70
2021/12/11 13:48:30;;;;;;;5.65;5.00;;;;;;;;;;5041471;28;20055;-69
2021/12/11 13:51:03;;;;;;;5.10;4.30;;;;;;;;;;5041163;28;20472;-69
2021/12/11 13:53:29;;;;;;;8.23;5.03;;;;;;;;;;5041400;28;20024;-69
2021/12/11 13:55:58;;;;;;;4.70;4.03;;;;;;;;;;5036361;28;20037;-70
2021/12/11 13:58:24;;;;;;;8.63;4.50;;;;;;;;;;5040936;28;20385;-71
2021/12/11 14:01:02;;;;;;;4.32;3.83;;;;;;;;;;5038686;28;20535;-71
2021/12/11 14:03:29;;;;;;;5.60;4.88;;;;;;;;;;5040393;28;20040;-71
2021/12/11 14:05:59;;;;;;;5.43;4.47;;;;;;;;;;5039961;28;20045;-70
2021/12/11 14:08:26;;;;;;;3.83;3.38;;;;;;;;;;5040992;28;20037;-70
2021/12/11 14:10:52;;;;;;;5.20;4.60;;;;;;;;;;5041164;28;20033;-70
2021/12/11 14:13:19;;;;;;;7.13;4.63;;;;;;;;;;5041264;28;20613;-71
2021/12/11 14:15:48;;;;;;;4.82;3.85;;;;;;;;;;5039007;28;20466;-70
2021/12/11 14:18:14;;;;;;;5.95;4.70;;;;;;;;;;5039403;28;20041;-70
2021/12/11 14:20:42;;;;;;;3.60;3.15;;;;;;;;;;5041688;28;20140;-70
2021/12/11 14:23:10;;;;;;;6.25;4.60;;;;;;;;;;5041629;28;20126;-70
2021/12/11 14:25:36;;;;;;;6.80;4.78;;;;;;;;;;5042503;28;20110;-71
2021/12/11 14:28:06;;;;;;;5.20;4.18;;;;;;;;;;5040205;28;20079;-70
2021/12/11 14:30:33;;;;;;;5.43;4.13;;;;;;;;;;5040250;28;20025;-72
2021/12/11 14:32:59;;;;;;;5.68;5.10;;;;;;;;;;5040290;28;20037;-72
2021/12/11 14:35:28;;;;;;;6.72;4.50;;;;;;;;;;5038863;28;20120;-71
2021/12/11 14:37:54;;;;;;;6.50;5.45;;;;;;;;;;5039338;28;20037;-72
2021/12/11 14:40:23;;;;;;;7.40;5.40;;;;;;;;;;5040209;28;20036;-73
2021/12/11 14:42:49;;;;;;;9.25;5.22;;;;;;;;;;5040627;28;21073;-73
2021/12/11 14:45:19;;;;;;;5.22;4.20;;;;;;;;;;5039497;28;20037;-72
2021/12/11 14:47:46;;;;;;;5.10;4.60;;;;;;;;;;5037851;28;20115;-72
2021/12/11 14:50:14;;;;;;;4.65;4.03;;;;;;;;;;5039424;28;20029;-72
2021/12/11 14:52:39;;;;;;;7.57;5.03;;;;;;;;;;5040146;28;20139;-73
2021/12/11 14:55:16;;;;;;;8.02;5.78;;;;;;;;;;5039902;28;20905;-73
2021/12/11 14:57:42;;;;;;;2.72;2.50;;;;;;;;;;5040092;28;20029;-72
2021/12/11 15:00:13;;;;;;;4.75;4.03;;;;;;;;;;5039246;28;20449;-73
2021/12/11 15:02:41;;;;;;;6.13;4.68;;;;;;;;;;5039816;28;20075;-72
2021/12/11 15:05:11;;;;;;;9.80;6.05;;;;;;;;;;5039786;28;20144;-72
2021/12/11 15:07:38;;;;;;;6.60;5.30;;;;;;;;;;5043328;28;20052;-72
2021/12/11 15:10:11;;;;;;;8.57;4.95;;;;;;;;;;5043059;28;20040;-73
2021/12/11 15:12:37;;;;;;;7.53;5.15;;;;;;;;;;5042212;28;20191;-72
2021/12/11 15:15:04;;;;;;;8.63;5.60;;;;;;;;;;5042740;28;20482;-72
2021/12/11 15:17:29;;;;;;;11.70;6.30;;;;;;;;;;5041768;28;20033;-72
2021/12/11 15:19:59;;;;;;;6.82;5.25;;;;;;;;;;5043051;28;20538;-73
2021/12/11 15:22:28;;;;;;;7.28;4.63;;;;;;;;;;5042550;28;20563;-74